Crew | Aerofun Virtual



 METAR AND TAF INFORMATION
METAR FOR LPPS
ADDS - METARS form results

(1934 UTC 21 July 2019)
Data provider http://aviationweather.gov/metar/data/
 
METAR text: LPPS 211930Z 01012KT 9999 FEW015 22/17 Q1023
Conditions at: LPPS (PORTO SANTO ISLA, PT) observed 1930 UTC 21 July 2019
Temperature: 22.0°C (72°F)
Dewpoint: 17.0°C (63°F) [RH = 73%]
Pressure (altimeter): 30.21 inches Hg (1023.0 mb)
Winds: from the N (10 degrees) at 14 MPH (12 knots; 6.2 m/s)
Visibility: 6 or more miles (10+ km)
Ceiling: at least 12,000 feet AGL
Clouds: few clouds at 1500 feet AGL
Weather: no significant weather observed at this time

METAR text: LPPS 211900Z 01014KT 9999 SCT015 22/17 Q1023
Conditions at: LPPS (PORTO SANTO ISLA, PT) observed 1900 UTC 21 July 2019
Temperature: 22.0°C (72°F)
Dewpoint: 17.0°C (63°F) [RH = 73%]
Pressure (altimeter): 30.21 inches Hg (1023.0 mb)
Winds: from the N (10 degrees) at 16 MPH (14 knots; 7.2 m/s)
Visibility: 6 or more miles (10+ km)
Ceiling: at least 12,000 feet AGL
Clouds: scattered clouds at 1500 feet AGL
Weather: no significant weather observed at this time

Forecast for: LPPS (PORTO SANTO ISLA, PT)
Text: TAF LPPS 211700Z 2118/2224 03012KT 9999 SCT015
Forecast period: 1800 UTC 21 July 2019 to 0000 UTC 23 July 2019
Forecast type: FROM: standard forecast or significant change
Winds: from the NNE (30 degrees) at 14 MPH (12 knots; 6.2 m/s)
Visibility: 6 or more miles 10+ km)
Ceiling: at least 12,000 feet AGL
Clouds: scattered clouds at 1500 feet AGL
Weather: no significant weather forecast for this period
Text: TEMPO 2200/2221 SCT014 BKN030
Forecast period: 0000 to 2100 UTC 22 July 2019
Forecast type: TEMPORARY: The following changes expected for less than half the time period
Visibility: missing
Ceiling: 3000 feet AGL
Clouds: scattered clouds at 1400 feet AGL
broken clouds at 3000 feet AGL
Weather: no significant weather forecast for this period

 AIRPORT MAP

 RUNWAY INFORMATION
Runway 01 Runway length 0 ft Runway width 0 ft
Runway elevation 240 ft Runway displaced threshold 0 ft Runway heading 0
Runway 19 Runway length 0 ft Runway width 0 ft
Runway elevation 341 ft Runway displaced threshold 0 ft Runway heading 0
Runway 18 Runway length 9861 ft Runway width 148 ft
Runway elevation 240 ft Runway displaced threshold 0 ft Runway heading 178
Runway 36 Runway length 9861 ft Runway width 148 ft
Runway elevation 338 ft Runway displaced threshold 0 ft Runway heading 358

 AIRPORT FREQUENCIES
Type GCA Name GCA Frequency 123.3 MHZ
Type TWR Name TWR Frequency 118.4 MHZ

 AIRPORT NEAR NAVIGATION AIDS
Type NDB Name Porto Santo Frequency 338 KHZ
Type VOR-DME Name Porto Santo Frequency 114900 KHZ
Type TACAN Name Porto Santo Frequency 116300 KHZ